Time;durP1;ratioP1;P1;durP2;ratioP2;P2;SDS_P1;SDS_P2;PMS_P1;PMS_P2;Temp;Humidity;BMP_temperature;BMP_pressure;BME280_temperature;BME280_humidity;BME280_pressure;Samples;Min_cycle;Max_cycle;Signal;HPM_P1;HPM_P2
2022/08/17 00:01:51;;;;;;;6.22;3.83;;;;;;;;;;5069929;28;20031;-81
2022/08/17 00:04:18;;;;;;;9.18;4.50;;;;;;;;;;5079436;28;20024;-82
2022/08/17 00:06:43;;;;;;;9.23;3.90;;;;;;;;;;5069469;28;20029;-82
2022/08/17 00:09:09;;;;;;;5.72;3.85;;;;;;;;;;5077285;28;20103;-82
2022/08/17 00:11:39;;;;;;;10.07;4.30;;;;;;;;;;5066521;28;20021;-81
2022/08/17 00:14:09;;;;;;;9.25;3.67;;;;;;;;;;5037155;28;20037;-82
2022/08/17 00:16:38;;;;;;;7.53;4.03;;;;;;;;;;5060903;28;20365;-82
2022/08/17 00:19:06;;;;;;;5.45;3.85;;;;;;;;;;5057366;28;20506;-82
2022/08/17 00:21:33;;;;;;;6.40;4.10;;;;;;;;;;5075088;28;20036;-82
2022/08/17 00:23:59;;;;;;;6.13;3.88;;;;;;;;;;5095190;28;20021;-82
2022/08/17 00:26:26;;;;;;;9.20;4.07;;;;;;;;;;5069485;28;20541;-82
2022/08/17 00:28:52;;;;;;;7.68;3.80;;;;;;;;;;5076541;28;20024;-82
2022/08/17 00:31:17;;;;;;;6.20;4.00;;;;;;;;;;5077473;28;20036;-82
2022/08/17 00:33:44;;;;;;;5.45;3.90;;;;;;;;;;5077544;28;20024;-82
2022/08/17 00:36:11;;;;;;;7.65;3.95;;;;;;;;;;5068641;28;20033;-82
2022/08/17 00:38:36;;;;;;;6.28;4.70;;;;;;;;;;5055285;28;20071;-81
2022/08/17 00:41:08;;;;;;;11.55;4.63;;;;;;;;;;5068727;28;20089;-82
2022/08/17 00:43:52;;;;;;;7.03;4.25;;;;;;;;;;5075867;28;20123;-83
2022/08/17 00:46:22;;;;;;;9.00;5.05;;;;;;;;;;5066877;28;20028;-81
2022/08/17 00:48:49;;;;;;;5.45;4.15;;;;;;;;;;5081520;28;20024;-81
2022/08/17 00:51:33;;;;;;;5.95;3.92;;;;;;;;;;5083855;28;20081;-80
2022/08/17 00:54:10;;;;;;;5.65;4.32;;;;;;;;;;5084264;28;20035;-81
2022/08/17 00:56:41;;;;;;;5.38;4.13;;;;;;;;;;5083180;28;20024;-82
2022/08/17 00:59:10;;;;;;;7.57;4.60;;;;;;;;;;5067640;28;20021;-83
2022/08/17 01:01:36;;;;;;;6.65;4.32;;;;;;;;;;5071510;28;20016;-82
2022/08/17 01:04:04;;;;;;;5.18;4.18;;;;;;;;;;5078016;28;20032;-83
2022/08/17 01:06:30;;;;;;;6.25;4.40;;;;;;;;;;5078023;28;20028;-83
2022/08/17 01:08:58;;;;;;;7.03;4.03;;;;;;;;;;5078054;28;20357;-83
2022/08/17 01:11:24;;;;;;;6.35;4.72;;;;;;;;;;5072220;28;20483;-82
2022/08/17 01:13:49;;;;;;;8.90;4.55;;;;;;;;;;5074879;28;20048;-83
2022/08/17 01:16:27;;;;;;;6.00;4.38;;;;;;;;;;5070143;28;20070;-83
2022/08/17 01:18:57;;;;;;;5.40;4.50;;;;;;;;;;5075958;28;20475;-82
2022/08/17 01:21:49;;;;;;;6.53;4.68;;;;;;;;;;5077164;28;20029;-83
2022/08/17 01:24:15;;;;;;;6.28;4.10;;;;;;;;;;5077617;28;20077;-83
2022/08/17 01:26:42;;;;;;;8.02;5.30;;;;;;;;;;5077415;28;20032;-82
2022/08/17 01:29:08;;;;;;;6.80;4.85;;;;;;;;;;5073051;28;20019;-82
2022/08/17 01:31:38;;;;;;;6.72;5.03;;;;;;;;;;5072718;28;20020;-82
2022/08/17 01:34:07;;;;;;;6.38;5.20;;;;;;;;;;5076943;28;20036;-82
2022/08/17 01:36:35;;;;;;;4.72;4.22;;;;;;;;;;5075205;28;20027;-83
2022/08/17 01:39:00;;;;;;;7.32;4.65;;;;;;;;;;5056983;28;20021;-82
2022/08/17 01:41:27;;;;;;;6.03;4.82;;;;;;;;;;5057662;28;20023;-82
2022/08/17 01:44:02;;;;;;;5.85;5.10;;;;;;;;;;5057430;28;20035;-83
2022/08/17 01:46:30;;;;;;;8.82;5.00;;;;;;;;;;5069826;28;20024;-83
2022/08/17 01:48:57;;;;;;;5.70;4.65;;;;;;;;;;5074048;28;20558;-83
2022/08/17 01:51:31;;;;;;;7.45;5.22;;;;;;;;;;5071654;28;20028;-83
2022/08/17 01:53:59;;;;;;;5.85;4.55;;;;;;;;;;5072248;28;20386;-82
2022/08/17 01:56:27;;;;;;;6.60;4.65;;;;;;;;;;5072859;28;20132;-83
2022/08/17 01:58:53;;;;;;;10.77;5.25;;;;;;;;;;5075842;28;20036;-83
2022/08/17 02:01:21;;;;;;;5.65;4.63;;;;;;;;;;5060025;28;20138;-83
2022/08/17 02:03:47;;;;;;;5.25;4.50;;;;;;;;;;5056287;28;20443;-83
2022/08/17 02:06:12;;;;;;;6.63;4.72;;;;;;;;;;5055897;28;20024;-82
2022/08/17 02:08:38;;;;;;;8.13;4.90;;;;;;;;;;5069041;28;20043;-82
2022/08/17 02:11:11;;;;;;;6.10;4.60;;;;;;;;;;5072631;28;20426;-82
2022/08/17 02:13:36;;;;;;;8.70;4.72;;;;;;;;;;5056422;28;20471;-82
2022/08/17 02:16:02;;;;;;;10.15;5.15;;;;;;;;;;5060439;28;20024;-82
2022/08/17 02:18:28;;;;;;;6.30;4.97;;;;;;;;;;5075077;28;20021;-82
2022/08/17 02:20:54;;;;;;;8.07;4.50;;;;;;;;;;5076876;28;20036;-82
2022/08/17 02:23:23;;;;;;;7.80;4.45;;;;;;;;;;5076220;28;20020;-82
2022/08/17 02:25:48;;;;;;;8.45;5.20;;;;;;;;;;5074264;28;20016;-82
2022/08/17 02:28:15;;;;;;;5.80;4.72;;;;;;;;;;5070643;28;20060;-82
2022/08/17 02:30:41;;;;;;;7.47;4.75;;;;;;;;;;5073085;28;20130;-82
2022/08/17 02:33:07;;;;;;;15.80;5.00;;;;;;;;;;5075742;28;20022;-82
2022/08/17 02:35:36;;;;;;;6.28;4.60;;;;;;;;;;5067604;28;20446;-82
2022/08/17 02:38:03;;;;;;;6.97;4.60;;;;;;;;;;5074476;28;20016;-82
2022/08/17 02:40:29;;;;;;;8.13;5.05;;;;;;;;;;5071392;28;20029;-82
2022/08/17 02:42:55;;;;;;;6.43;4.60;;;;;;;;;;5074344;28;20035;-82
2022/08/17 02:45:23;;;;;;;7.38;4.78;;;;;;;;;;5069741;28;20029;-82
2022/08/17 02:47:49;;;;;;;7.22;4.63;;;;;;;;;;5075559;28;20029;-83
2022/08/17 02:50:17;;;;;;;9.32;4.97;;;;;;;;;;5074012;28;20025;-83
2022/08/17 02:52:44;;;;;;;12.88;5.15;;;;;;;;;;5076623;28;20028;-82
2022/08/17 02:55:20;;;;;;;6.88;4.82;;;;;;;;;;5058336;28;20115;-82
2022/08/17 02:57:47;;;;;;;9.57;5.22;;;;;;;;;;5058181;28;20037;-82
2022/08/17 03:00:20;;;;;;;8.40;4.35;;;;;;;;;;5062526;28;20040;-82
2022/08/17 03:02:45;;;;;;;7.30;4.82;;;;;;;;;;5078752;28;20102;-83
2022/08/17 03:05:13;;;;;;;6.70;5.32;;;;;;;;;;5078504;28;20433;-82
2022/08/17 03:07:38;;;;;;;5.47;4.82;;;;;;;;;;5078626;28;20028;-82
2022/08/17 03:10:06;;;;;;;8.93;4.80;;;;;;;;;;5072794;28;20022;-83
2022/08/17 03:12:33;;;;;;;7.10;5.50;;;;;;;;;;5078651;28;20028;-81
2022/08/17 03:15:07;;;;;;;8.73;5.07;;;;;;;;;;5072187;28;20017;-81
2022/08/17 03:17:32;;;;;;;9.70;5.57;;;;;;;;;;5071918;28;20056;-81
2022/08/17 03:19:57;;;;;;;15.07;5.03;;;;;;;;;;5077826;28;20035;-82
2022/08/17 03:22:25;;;;;;;8.07;5.40;;;;;;;;;;5077232;28;20033;-82
2022/08/17 03:24:50;;;;;;;6.63;4.85;;;;;;;;;;5077237;28;20420;-82
2022/08/17 03:27:16;;;;;;;8.80;4.97;;;;;;;;;;5078336;28;20028;-82
2022/08/17 03:29:41;;;;;;;7.28;5.15;;;;;;;;;;5072174;28;20474;-81
2022/08/17 03:32:11;;;;;;;7.78;5.07;;;;;;;;;;5078249;28;20031;-82
2022/08/17 03:34:37;;;;;;;7.28;5.57;;;;;;;;;;5077916;28;20028;-82
2022/08/17 03:37:02;;;;;;;8.65;5.30;;;;;;;;;;5078006;28;20032;-82
2022/08/17 03:39:27;;;;;;;11.25;5.35;;;;;;;;;;5078100;28;20380;-81
2022/08/17 03:42:00;;;;;;;9.15;5.18;;;;;;;;;;5074457;28;20465;-82
2022/08/17 03:44:25;;;;;;;10.07;5.38;;;;;;;;;;5077628;28;20028;-81
2022/08/17 03:57:47;;;;;;;12.00;5.38;;;;;;;;;;5071921;28;20386;-82
2022/08/17 04:00:13;;;;;;;8.73;5.20;;;;;;;;;;5077354;28;20048;-82
2022/08/17 04:02:41;;;;;;;6.47;4.82;;;;;;;;;;5071249;28;20024;-81
2022/08/17 04:05:08;;;;;;;6.50;5.00;;;;;;;;;;5077510;28;20024;-82
2022/08/17 04:07:34;;;;;;;7.28;4.50;;;;;;;;;;5058659;28;20020;-81
2022/08/17 04:09:59;;;;;;;6.90;5.13;;;;;;;;;;5060342;28;20024;-81
2022/08/17 04:12:29;;;;;;;5.10;4.43;;;;;;;;;;5063260;28;20086;-82
2022/08/17 04:14:54;;;;;;;6.30;4.68;;;;;;;;;;5055967;28;20032;-82
2022/08/17 04:17:22;;;;;;;8.32;5.38;;;;;;;;;;5071531;28;20035;-82
2022/08/17 04:19:47;;;;;;;6.32;4.63;;;;;;;;;;5075766;28;20104;-81
2022/08/17 04:22:13;;;;;;;11.13;5.40;;;;;;;;;;5071494;28;20060;-82
2022/08/17 04:24:38;;;;;;;8.10;5.45;;;;;;;;;;5077573;28;20066;-81
2022/08/17 04:27:03;;;;;;;6.93;4.57;;;;;;;;;;5077303;28;20372;-82
2022/08/17 04:29:29;;;;;;;10.95;5.50;;;;;;;;;;5068643;28;20088;-82
2022/08/17 04:31:54;;;;;;;5.75;4.93;;;;;;;;;;5076859;28;20032;-82
2022/08/17 04:34:20;;;;;;;8.10;5.00;;;;;;;;;;5077574;28;20032;-85
2022/08/17 04:36:45;;;;;;;7.95;4.90;;;;;;;;;;5080474;28;20035;-85
2022/08/17 04:39:11;;;;;;;9.73;5.35;;;;;;;;;;5079466;28;20020;-85
2022/08/17 04:42:16;;;;;;;8.57;5.45;;;;;;;;;;5079012;28;20020;-84
2022/08/17 04:44:28;;;;;;;7.88;5.32;;;;;;;;;;5067424;28;20032;-84
2022/08/17 04:46:53;;;;;;;8.77;4.93;;;;;;;;;;5070823;28;20032;-85
2022/08/17 04:49:19;;;;;;;6.95;4.60;;;;;;;;;;5075334;28;20101;-85
2022/08/17 04:51:46;;;;;;;11.40;5.25;;;;;;;;;;5080478;28;20025;-84
2022/08/17 04:54:15;;;;;;;5.88;4.68;;;;;;;;;;5080585;28;20032;-84
2022/08/17 04:56:41;;;;;;;9.02;5.07;;;;;;;;;;5079907;28;20169;-83
2022/08/17 04:59:10;;;;;;;6.95;4.68;;;;;;;;;;5078042;28;20509;-85
2022/08/17 05:01:38;;;;;;;7.28;4.88;;;;;;;;;;5080829;28;20024;-85
2022/08/17 05:04:15;;;;;;;10.45;4.97;;;;;;;;;;5080520;28;20046;-84
2022/08/17 05:06:41;;;;;;;6.43;4.53;;;;;;;;;;5080084;28;20046;-83
2022/08/17 05:09:06;;;;;;;5.57;4.70;;;;;;;;;;5080165;28;20045;-86
2022/08/17 05:11:31;;;;;;;7.05;4.55;;;;;;;;;;5073368;28;20025;-86
2022/08/17 05:13:57;;;;;;;7.30;4.95;;;;;;;;;;5056971;28;20035;-82
2022/08/17 05:16:25;;;;;;;13.55;5.25;;;;;;;;;;5062536;28;20082;-84
2022/08/17 05:18:51;;;;;;;8.00;5.18;;;;;;;;;;5068736;28;20027;-84
2022/08/17 05:21:18;;;;;;;6.25;4.72;;;;;;;;;;5076651;28;20403;-83
2022/08/17 05:23:44;;;;;;;7.18;4.32;;;;;;;;;;5072666;28;20036;-83
2022/08/17 05:26:12;;;;;;;7.43;4.65;;;;;;;;;;5076067;28;20028;-83
2022/08/17 05:28:38;;;;;;;6.63;5.00;;;;;;;;;;5076452;28;20066;-82
2022/08/17 05:31:04;;;;;;;10.38;3.95;;;;;;;;;;5070430;28;20024;-82
2022/08/17 05:33:35;;;;;;;8.52;5.13;;;;;;;;;;5072028;28;20042;-83
2022/08/17 05:36:03;;;;;;;7.00;4.55;;;;;;;;;;5047486;28;20025;-82
2022/08/17 05:38:29;;;;;;;8.48;4.30;;;;;;;;;;5075597;28;20025;-82
2022/08/17 05:40:56;;;;;;;7.22;4.57;;;;;;;;;;5076510;28;20043;-82
2022/08/17 05:43:27;;;;;;;6.40;4.47;;;;;;;;;;5075775;28;20059;-83
2022/08/17 05:46:02;;;;;;;6.82;4.18;;;;;;;;;;5068551;28;20021;-82
2022/08/17 05:48:42;;;;;;;4.82;3.50;;;;;;;;;;5072143;28;20017;-82
2022/08/17 05:51:31;;;;;;;5.80;4.32;;;;;;;;;;5076075;28;20020;-81
2022/08/17 05:53:57;;;;;;;5.13;3.95;;;;;;;;;;5078444;28;20020;-82
2022/08/17 05:56:49;;;;;;;7.38;4.22;;;;;;;;;;5077111;28;20051;-82
2022/08/17 05:59:35;;;;;;;6.22;4.28;;;;;;;;;;5070917;28;20020;-82
2022/08/17 06:02:43;;;;;;;8.30;4.35;;;;;;;;;;5061171;28;20165;-82
2022/08/17 06:05:14;;;;;;;5.32;4.05;;;;;;;;;;5054968;28;20029;-82
2022/08/17 06:08:10;;;;;;;8.90;4.18;;;;;;;;;;5059596;28;20399;-83
2022/08/17 06:10:59;;;;;;;9.93;4.57;;;;;;;;;;5057847;28;20380;-83
2022/08/17 06:13:37;;;;;;;11.55;4.45;;;;;;;;;;5038208;28;20049;-83
2022/08/17 06:16:10;;;;;;;8.27;4.78;;;;;;;;;;5056463;28;20016;-82
2022/08/17 06:18:57;;;;;;;10.18;5.95;;;;;;;;;;5076591;28;20029;-83
2022/08/17 06:21:24;;;;;;;11.50;6.55;;;;;;;;;;5078555;28;20475;-83
2022/08/17 06:23:58;;;;;;;11.00;6.78;;;;;;;;;;5078340;28;20066;-82
2022/08/17 06:26:29;;;;;;;19.58;10.50;;;;;;;;;;5078210;28;20395;-82
2022/08/17 06:28:57;;;;;;;;;;;;;;;;;;5068059;28;20029;-83
2022/08/17 06:31:28;;;;;;;15.80;8.32;;;;;;;;;;5075425;28;19908;-83
2022/08/17 06:33:56;;;;;;;10.77;6.95;;;;;;;;;;5076031;28;20572;-83
2022/08/17 06:36:39;;;;;;;8.23;5.32;;;;;;;;;;5076204;28;20028;-83
2022/08/17 06:39:35;;;;;;;10.55;4.60;;;;;;;;;;5075395;28;20376;-82
2022/08/17 06:42:09;;;;;;;9.65;4.68;;;;;;;;;;5069194;28;20036;-83
2022/08/17 06:44:41;;;;;;;6.45;3.85;;;;;;;;;;5076164;28;20033;-83
2022/08/17 06:47:12;;;;;;;7.35;4.38;;;;;;;;;;5060930;28;20038;-83
2022/08/17 06:49:46;;;;;;;7.80;4.40;;;;;;;;;;5066947;28;20024;-83
2022/08/17 06:52:19;;;;;;;7.57;3.95;;;;;;;;;;5079200;28;20086;-82
2022/08/17 06:55:08;;;;;;;7.85;4.35;;;;;;;;;;5070162;28;20084;-82
2022/08/17 06:57:44;;;;;;;6.38;4.65;;;;;;;;;;5069971;28;20024;-82
2022/08/17 07:00:17;;;;;;;7.85;4.40;;;;;;;;;;5065404;28;20021;-81
2022/08/17 07:03:10;;;;;;;7.65;4.35;;;;;;;;;;5087136;28;20116;-81
2022/08/17 07:05:48;;;;;;;6.95;4.82;;;;;;;;;;5083632;28;20271;-82
2022/08/17 07:08:21;;;;;;;7.63;4.72;;;;;;;;;;5084963;28;20047;-83
2022/08/17 07:10:51;;;;;;;8.00;4.70;;;;;;;;;;5077890;28;20024;-83
2022/08/17 07:13:20;;;;;;;9.37;5.20;;;;;;;;;;5057479;28;20103;-83
2022/08/17 07:15:50;;;;;;;8.38;4.78;;;;;;;;;;5059438;28;20084;-83
2022/08/17 07:18:15;;;;;;;6.60;4.53;;;;;;;;;;5073478;28;20044;-83
2022/08/17 07:20:46;;;;;;;7.45;4.75;;;;;;;;;;5076222;28;20032;-83
2022/08/17 07:23:36;;;;;;;8.15;3.90;;;;;;;;;;5078882;28;20055;-84
2022/08/17 07:26:06;;;;;;;5.10;3.72;;;;;;;;;;5077686;28;20103;-81
2022/08/17 07:28:34;;;;;;;5.63;4.10;;;;;;;;;;5069463;28;20037;-81
2022/08/17 07:30:59;;;;;;;5.95;4.03;;;;;;;;;;5060866;28;20498;-81
2022/08/17 07:33:29;;;;;;;5.18;3.65;;;;;;;;;;5085917;28;20026;-81
2022/08/17 07:35:56;;;;;;;5.95;3.72;;;;;;;;;;5093399;28;20032;-82
2022/08/17 07:38:26;;;;;;;4.85;3.35;;;;;;;;;;5090513;28;20020;-82
2022/08/17 07:41:07;;;;;;;7.28;4.32;;;;;;;;;;5095727;28;20044;-82
2022/08/17 07:43:38;;;;;;;6.40;3.80;;;;;;;;;;5086138;28;20036;-84
2022/08/17 07:49:36;;;;;;;8.20;4.20;;;;;;;;;;4999000;28;20118;-83
2022/08/17 07:52:29;;;;;;;5.95;4.50;;;;;;;;;;5003501;28;20030;-83
2022/08/17 07:54:55;;;;;;;7.57;3.97;;;;;;;;;;5054288;28;20047;-83
2022/08/17 07:57:22;;;;;;;9.57;4.18;;;;;;;;;;5061151;28;20029;-83
2022/08/17 08:00:00;;;;;;;8.88;3.65;;;;;;;;;;5080108;28;20032;-83
2022/08/17 08:02:37;;;;;;;4.50;3.05;;;;;;;;;;5081890;28;20031;-83
2022/08/17 08:05:12;;;;;;;9.38;3.83;;;;;;;;;;5082319;28;20112;-83
2022/08/17 08:07:49;;;;;;;4.85;3.00;;;;;;;;;;5079017;28;20436;-83
2022/08/17 08:10:27;;;;;;;5.68;2.67;;;;;;;;;;5061776;28;20013;-83
2022/08/17 08:13:19;;;;;;;5.55;3.35;;;;;;;;;;5061605;28;20028;-83
2022/08/17 08:15:52;;;;;;;3.42;2.78;;;;;;;;;;5061756;28;20017;-82
2022/08/17 08:18:35;;;;;;;2.70;2.50;;;;;;;;;;5076626;28;20024;-83
2022/08/17 08:21:18;;;;;;;4.78;2.80;;;;;;;;;;5073311;28;20029;-82
2022/08/17 08:23:51;;;;;;;3.83;2.83;;;;;;;;;;5081880;28;20026;-83
2022/08/17 08:26:38;;;;;;;6.70;3.00;;;;;;;;;;5082672;28;20025;-82
2022/08/17 08:29:22;;;;;;;3.78;2.70;;;;;;;;;;5080019;28;20032;-82
2022/08/17 08:31:50;;;;;;;3.60;2.90;;;;;;;;;;5080382;28;20024;-82
2022/08/17 08:34:44;;;;;;;5.03;2.80;;;;;;;;;;5081345;28;20036;-82
2022/08/17 08:37:24;;;;;;;3.63;2.60;;;;;;;;;;5078457;28;20028;-83
2022/08/17 08:40:02;;;;;;;4.03;2.63;;;;;;;;;;5079435;28;20031;-82
2022/08/17 08:42:51;;;;;;;4.93;2.85;;;;;;;;;;5078583;28;20036;-83
2022/08/17 08:45:30;;;;;;;3.58;3.00;;;;;;;;;;5071722;28;20444;-83
2022/08/17 08:48:31;;;;;;;5.88;2.90;;;;;;;;;;5067179;28;20017;-83
2022/08/17 08:51:05;;;;;;;7.43;2.70;;;;;;;;;;5077813;28;20024;-83
2022/08/17 08:53:42;;;;;;;4.68;2.88;;;;;;;;;;5077937;28;20028;-83
2022/08/17 08:56:17;;;;;;;5.63;2.70;;;;;;;;;;5078982;28;20020;-82
2022/08/17 08:59:22;;;;;;;5.47;3.33;;;;;;;;;;5076015;28;20020;-83
2022/08/17 09:02:02;;;;;;;2.63;2.35;;;;;;;;;;5077325;28;20029;-82
2022/08/17 09:05:06;;;;;;;6.05;2.85;;;;;;;;;;5068536;28;20032;-82
2022/08/17 09:07:37;;;;;;;6.90;2.80;;;;;;;;;;5037267;28;20415;-82
2022/08/17 09:10:14;;;;;;;6.25;3.15;;;;;;;;;;5037439;28;20391;-82
2022/08/17 09:12:56;;;;;;;3.58;2.45;;;;;;;;;;5053461;28;20426;-82
2022/08/17 09:15:26;;;;;;;;;;;;;;;;;;5058216;28;20367;-83
2022/08/17 09:18:32;;;;;;;4.20;2.78;;;;;;;;;;5074739;28;19950;-83
2022/08/17 09:21:04;;;;;;;3.28;2.97;;;;;;;;;;5060473;28;20046;-83
2022/08/17 09:23:44;;;;;;;2.72;2.45;;;;;;;;;;5077383;28;20048;-82
2022/08/17 09:26:21;;;;;;;5.03;2.75;;;;;;;;;;5077430;28;20074;-83
2022/08/17 09:28:51;;;;;;;6.18;2.90;;;;;;;;;;5072163;28;20028;-83
2022/08/17 09:31:22;;;;;;;4.75;2.90;;;;;;;;;;5076012;28;20024;-82
2022/08/17 09:33:50;;;;;;;6.18;2.80;;;;;;;;;;5076978;28;20016;-82
2022/08/17 09:36:34;;;;;;;5.00;2.95;;;;;;;;;;5077191;28;20056;-82
2022/08/17 09:39:13;;;;;;;6.45;2.78;;;;;;;;;;5076112;28;20028;-83
2022/08/17 09:41:50;;;;;;;5.30;2.83;;;;;;;;;;5076053;28;20039;-83
2022/08/17 09:44:22;;;;;;;4.10;2.75;;;;;;;;;;5066318;28;20138;-82
2022/08/17 09:46:51;;;;;;;;;;;;;;;;;;5069276;28;20479;-82
2022/08/17 09:49:44;;;;;;;5.47;2.50;;;;;;;;;;5069652;28;19908;-83
2022/08/17 09:52:13;;;;;;;4.28;2.67;;;;;;;;;;5051043;28;20024;-82
2022/08/17 09:54:39;;;;;;;3.67;2.70;;;;;;;;;;5076375;28;20024;-82
2022/08/17 09:57:21;;;;;;;4.50;2.97;;;;;;;;;;5061056;28;20108;-82
2022/08/17 10:00:12;;;;;;;7.47;3.05;;;;;;;;;;5075771;28;20069;-82
2022/08/17 10:02:53;;;;;;;4.97;3.10;;;;;;;;;;5074776;28;20059;-81
2022/08/17 10:05:45;;;;;;;12.57;3.03;;;;;;;;;;5076592;28;20054;-81
2022/08/17 10:08:30;;;;;;;;;;;;;;;;;;5075583;28;20435;-81
2022/08/17 10:11:04;;;;;;;3.60;2.50;;;;;;;;;;5068896;28;19950;-82
2022/08/17 10:13:50;;;;;;;6.95;2.83;;;;;;;;;;5055679;28;20032;-81
2022/08/17 10:16:16;;;;;;;4.03;2.55;;;;;;;;;;5062086;28;20029;-82
2022/08/17 10:18:52;;;;;;;3.88;2.72;;;;;;;;;;5069024;28;20028;-82
2022/08/17 10:26:58;;;;;;;4.05;2.65;;;;;;;;;;5076514;28;20035;-83
2022/08/17 10:29:32;;;;;;;4.03;2.95;;;;;;;;;;5071705;28;20020;-82
2022/08/17 10:32:04;;;;;;;3.63;2.70;;;;;;;;;;5076662;28;20051;-82
2022/08/17 10:34:29;;;;;;;;;;;;;;;;;;5082969;28;20017;-84
2022/08/17 10:37:04;;;;;;;2.92;2.70;;;;;;;;;;5074902;28;19941;-84
2022/08/17 10:39:56;;;;;;;4.60;2.53;;;;;;;;;;5073455;28;20406;-82
2022/08/17 10:42:30;;;;;;;4.80;2.60;;;;;;;;;;5037351;28;20480;-84
2022/08/17 10:45:20;;;;;;;5.55;2.70;;;;;;;;;;5044095;28;20081;-81
2022/08/17 10:48:02;;;;;;;4.70;3.13;;;;;;;;;;5093765;28;20031;-82
2022/08/17 10:50:58;;;;;;;9.02;2.78;;;;;;;;;;5087030;28;20025;-81
2022/08/17 10:53:30;;;;;;;3.13;2.55;;;;;;;;;;5072141;28;20075;-81
2022/08/17 10:56:10;;;;;;;3.92;2.88;;;;;;;;;;5096140;28;20009;-81
2022/08/17 10:58:50;;;;;;;4.57;2.38;;;;;;;;;;5091171;28;20025;-80
2022/08/17 11:01:16;;;;;;;11.20;3.22;;;;;;;;;;5096454;28;20034;-82
2022/08/17 11:03:52;;;;;;;8.30;3.45;;;;;;;;;;5081169;28;20052;-85
2022/08/17 11:06:41;;;;;;;5.50;2.83;;;;;;;;;;5073339;28;20048;-82
2022/08/17 11:09:18;;;;;;;10.30;3.63;;;;;;;;;;5043555;28;20080;-86
2022/08/17 11:12:06;;;;;;;5.97;2.90;;;;;;;;;;5061797;28;20021;-86
2022/08/17 11:14:36;;;;;;;6.18;3.72;;;;;;;;;;5061520;28;20025;-85
2022/08/17 11:17:28;;;;;;;5.47;3.63;;;;;;;;;;5065251;28;20028;-83
2022/08/17 11:20:15;;;;;;;8.55;3.88;;;;;;;;;;5074626;28;20478;-83
2022/08/17 11:23:01;;;;;;;7.53;3.47;;;;;;;;;;5080212;28;20074;-83
2022/08/17 11:25:45;;;;;;;8.07;4.03;;;;;;;;;;5070237;28;20029;-85
2022/08/17 11:28:22;;;;;;;10.05;4.20;;;;;;;;;;5082911;28;20032;-83
2022/08/17 11:30:52;;;;;;;12.38;5.07;;;;;;;;;;5073668;28;20103;-83
2022/08/17 11:33:33;;;;;;;9.63;5.32;;;;;;;;;;5066269;28;20386;-84
2022/08/17 11:36:11;;;;;;;8.75;4.38;;;;;;;;;;5081308;28;20024;-85
2022/08/17 11:38:56;;;;;;;11.55;4.65;;;;;;;;;;5080857;28;20032;-84
2022/08/17 11:41:40;;;;;;;5.90;3.95;;;;;;;;;;5080669;28;20020;-84
2022/08/17 11:44:30;;;;;;;7.68;4.13;;;;;;;;;;5078839;28;20063;-84
2022/08/17 11:53:37;;;;;;;8.48;4.00;;;;;;;;;;5076878;28;20027;-84
2022/08/17 11:56:03;;;;;;;8.43;4.10;;;;;;;;;;5079428;28;20028;-84
2022/08/17 11:58:28;;;;;;;7.70;4.32;;;;;;;;;;5075992;28;20075;-85
2022/08/17 12:01:00;;;;;;;7.28;4.25;;;;;;;;;;5078855;28;20360;-85
2022/08/17 12:03:32;;;;;;;11.05;4.55;;;;;;;;;;5079211;28;20020;-85
2022/08/17 12:06:29;;;;;;;9.05;4.78;;;;;;;;;;5079136;28;20020;-84
2022/08/17 12:09:31;;;;;;;6.63;4.55;;;;;;;;;;5061316;28;20116;-85
2022/08/17 12:12:03;;;;;;;6.35;4.20;;;;;;;;;;5059374;28;20037;-84
2022/08/17 12:14:32;;;;;;;7.10;5.15;;;;;;;;;;5078667;28;20031;-85
2022/08/17 12:17:05;;;;;;;4.95;4.32;;;;;;;;;;5065976;28;20365;-86
2022/08/17 12:19:33;;;;;;;8.30;4.88;;;;;;;;;;5063553;28;20024;-85
2022/08/17 12:22:04;;;;;;;6.20;4.20;;;;;;;;;;5085853;28;20024;-85
2022/08/17 12:24:49;;;;;;;8.27;4.07;;;;;;;;;;5085612;28;20382;-85
2022/08/17 12:27:26;;;;;;;6.28;3.90;;;;;;;;;;5086338;28;20020;-85
2022/08/17 12:29:53;;;;;;;8.82;4.80;;;;;;;;;;5080053;28;20052;-85
2022/08/17 12:32:20;;;;;;;7.78;4.70;;;;;;;;;;5083039;28;20483;-85
2022/08/17 12:34:48;;;;;;;8.32;4.65;;;;;;;;;;5067905;28;20036;-88
2022/08/17 12:37:24;;;;;;;7.90;4.30;;;;;;;;;;5081276;28;20024;-86
2022/08/17 12:40:15;;;;;;;7.07;4.60;;;;;;;;;;5082188;28;20024;-86
2022/08/17 12:42:53;;;;;;;6.75;4.32;;;;;;;;;;5073982;28;20032;-86
2022/08/17 12:45:28;;;;;;;7.22;4.00;;;;;;;;;;5075700;28;20059;-86
2022/08/17 12:48:05;;;;;;;7.18;4.07;;;;;;;;;;5069499;28;20024;-86
2022/08/17 12:50:31;;;;;;;6.13;3.45;;;;;;;;;;5070096;28;20459;-86
2022/08/17 12:52:57;;;;;;;6.13;3.80;;;;;;;;;;5070797;28;20028;-85
2022/08/17 12:55:24;;;;;;;6.18;3.85;;;;;;;;;;5080629;28;20051;-85
2022/08/17 12:57:53;;;;;;;8.23;3.85;;;;;;;;;;5078984;28;20040;-85
2022/08/17 13:00:18;;;;;;;5.50;3.80;;;;;;;;;;5074898;28;20436;-86
2022/08/17 13:03:06;;;;;;;6.28;4.03;;;;;;;;;;5080999;28;20517;-85
2022/08/17 13:05:42;;;;;;;6.40;4.13;;;;;;;;;;5080616;28;20032;-84
2022/08/17 13:08:19;;;;;;;6.88;4.50;;;;;;;;;;5077531;28;20024;-86
2022/08/17 13:10:56;;;;;;;6.15;4.78;;;;;;;;;;5078753;28;20027;-86
2022/08/17 13:13:28;;;;;;;6.50;4.47;;;;;;;;;;5058573;28;20052;-86
2022/08/17 13:16:02;;;;;;;6.15;4.35;;;;;;;;;;5062448;28;20025;-85
2022/08/17 13:18:38;;;;;;;11.77;5.07;;;;;;;;;;5073443;28;20039;-85
2022/08/17 13:21:11;;;;;;;4.90;3.50;;;;;;;;;;5066270;28;20031;-85
2022/08/17 13:23:36;;;;;;;6.40;4.07;;;;;;;;;;5079882;28;20025;-85
2022/08/17 13:26:14;;;;;;;9.07;5.13;;;;;;;;;;5077918;28;20021;-86
2022/08/17 13:28:50;;;;;;;10.80;4.63;;;;;;;;;;5076079;28;20037;-85
2022/08/17 13:31:33;;;;;;;6.60;3.72;;;;;;;;;;5077581;28;20020;-85
2022/08/17 13:34:14;;;;;;;6.32;4.18;;;;;;;;;;5079215;28;20024;-85
2022/08/17 13:36:39;;;;;;;8.27;4.13;;;;;;;;;;5077498;28;20150;-85
2022/08/17 13:39:27;;;;;;;10.90;4.50;;;;;;;;;;5069237;28;20053;-86
2022/08/17 13:41:54;;;;;;;7.47;3.85;;;;;;;;;;5078176;28;20032;-86
2022/08/17 13:44:37;;;;;;;6.00;4.20;;;;;;;;;;5075310;28;20042;-85
2022/08/17 13:47:14;;;;;;;8.63;3.72;;;;;;;;;;5061523;28;20053;-86
2022/08/17 13:49:40;;;;;;;6.80;3.72;;;;;;;;;;5072335;28;20036;-85
2022/08/17 13:52:07;;;;;;;6.40;3.47;;;;;;;;;;5068886;28;20487;-85
2022/08/17 13:54:35;;;;;;;6.63;3.63;;;;;;;;;;5074872;28;20550;-85
2022/08/17 13:57:05;;;;;;;5.05;3.30;;;;;;;;;;5073944;28;20032;-85
2022/08/17 13:59:40;;;;;;;5.43;3.17;;;;;;;;;;5077036;28;20020;-85
2022/08/17 14:02:08;;;;;;;8.50;3.85;;;;;;;;;;5078066;28;20016;-85
2022/08/17 14:04:34;;;;;;;3.83;3.10;;;;;;;;;;5076885;28;20031;-85
2022/08/17 14:07:11;;;;;;;7.55;3.72;;;;;;;;;;5067732;28;20029;-84
2022/08/17 14:09:41;;;;;;;4.97;2.90;;;;;;;;;;5077251;28;20017;-84
2022/08/17 14:12:12;;;;;;;5.90;2.97;;;;;;;;;;5067081;28;20112;-84
2022/08/17 14:14:38;;;;;;;3.88;2.42;;;;;;;;;;5058156;28;20052;-85
2022/08/17 14:17:04;;;;;;;5.15;2.60;;;;;;;;;;5062976;28;20016;-84
2022/08/17 14:19:29;;;;;;;4.65;2.70;;;;;;;;;;5072243;28;20031;-84
2022/08/17 14:21:57;;;;;;;6.43;3.00;;;;;;;;;;5077766;28;20111;-84
2022/08/17 14:24:27;;;;;;;4.07;2.83;;;;;;;;;;5079992;28;20025;-86
2022/08/17 14:26:53;;;;;;;4.05;3.20;;;;;;;;;;5081853;28;20104;-85
2022/08/17 14:29:20;;;;;;;4.05;3.10;;;;;;;;;;5072655;28;20059;-86
2022/08/17 14:31:47;;;;;;;5.18;2.70;;;;;;;;;;5077799;28;20028;-86
2022/08/17 14:34:12;;;;;;;6.07;3.08;;;;;;;;;;5059628;28;20025;-86
2022/08/17 14:36:40;;;;;;;5.15;3.58;;;;;;;;;;5065012;28;20103;-85
2022/08/17 14:39:06;;;;;;;4.75;2.58;;;;;;;;;;5078704;28;20071;-85
2022/08/17 14:41:31;;;;;;;6.72;3.00;;;;;;;;;;5078321;28;20033;-85
2022/08/17 14:43:56;;;;;;;9.15;3.15;;;;;;;;;;5077971;28;20039;-86
2022/08/17 14:46:22;;;;;;;6.30;2.90;;;;;;;;;;5062201;28;20502;-85
2022/08/17 14:48:52;;;;;;;5.40;3.10;;;;;;;;;;5069378;28;20102;-86
2022/08/17 14:51:19;;;;;;;3.05;2.60;;;;;;;;;;5078373;28;20492;-85
2022/08/17 14:53:45;;;;;;;6.60;3.40;;;;;;;;;;5077142;28;20028;-85
2022/08/17 14:56:12;;;;;;;5.47;2.83;;;;;;;;;;5078648;28;20033;-84
2022/08/17 14:58:37;;;;;;;3.33;2.72;;;;;;;;;;5079167;28;20488;-85
2022/08/17 15:01:06;;;;;;;8.30;2.80;;;;;;;;;;5068593;28;20025;-85
2022/08/17 15:03:31;;;;;;;5.45;3.00;;;;;;;;;;5079011;28;20486;-84
2022/08/17 15:05:57;;;;;;;4.18;3.00;;;;;;;;;;5077991;28;20120;-84
2022/08/17 15:08:22;;;;;;;4.88;3.30;;;;;;;;;;5069641;28;20044;-84
2022/08/17 15:10:49;;;;;;;4.13;2.80;;;;;;;;;;5076723;28;20028;-84
2022/08/17 15:13:19;;;;;;;4.00;3.05;;;;;;;;;;5049650;28;20052;-84
2022/08/17 15:15:45;;;;;;;6.35;3.30;;;;;;;;;;5067061;28;20452;-85
2022/08/17 15:18:11;;;;;;;4.85;3.25;;;;;;;;;;5072839;28;20036;-84
2022/08/17 15:20:36;;;;;;;6.43;3.42;;;;;;;;;;5072994;28;20391;-83
2022/08/17 15:23:02;;;;;;;9.00;2.75;;;;;;;;;;5076258;28;20033;-84
2022/08/17 15:25:30;;;;;;;4.53;2.92;;;;;;;;;;5068637;28;20028;-84
2022/08/17 15:27:56;;;;;;;4.63;3.10;;;;;;;;;;5076012;28;20336;-85
2022/08/17 15:30:24;;;;;;;5.40;3.20;;;;;;;;;;5078461;28;20024;-84
2022/08/17 15:32:50;;;;;;;3.92;3.17;;;;;;;;;;5078899;28;20107;-85
2022/08/17 15:35:16;;;;;;;4.57;3.42;;;;;;;;;;5078223;28;20082;-85
2022/08/17 15:37:43;;;;;;;5.75;2.95;;;;;;;;;;5066051;28;20094;-85
2022/08/17 15:40:09;;;;;;;5.22;2.83;;;;;;;;;;5078657;28;20487;-84
2022/08/17 15:42:34;;;;;;;6.15;3.08;;;;;;;;;;5077987;28;20063;-85